sensor_id;sensor_type;location;lat;lon;timestamp;P1;durP1;ratioP1;P2;durP2;ratioP2
15516;SDS011;7860;52.030;5.572;2023-03-14T00:03:30;10.98;;;3.10;;
15516;SDS011;7860;52.030;5.572;2023-03-14T00:03:31;12.04;;;3.16;;
15516;SDS011;7860;52.030;5.572;2023-03-14T00:04:00;11.91;;;3.32;;
15516;SDS011;7860;52.030;5.572;2023-03-14T00:05:01;12.46;;;3.63;;
15516;SDS011;7860;52.030;5.572;2023-03-14T00:06:01;13.21;;;3.37;;
15516;SDS011;7860;52.030;5.572;2023-03-14T00:07:02;9.80;;;3.27;;
15516;SDS011;7860;52.030;5.572;2023-03-14T00:08:02;13.36;;;3.43;;
15516;SDS011;7860;52.030;5.572;2023-03-14T00:09:02;11.89;;;3.42;;
15516;SDS011;7860;52.030;5.572;2023-03-14T00:10:04;13.11;;;3.28;;
15516;SDS011;7860;52.030;5.572;2023-03-14T00:11:04;11.59;;;3.04;;
15516;SDS011;7860;52.030;5.572;2023-03-14T00:12:03;12.14;;;3.35;;
15516;SDS011;7860;52.030;5.572;2023-03-14T00:13:03;12.75;;;3.45;;
15516;SDS011;7860;52.030;5.572;2023-03-14T00:14:03;15.36;;;4.09;;
15516;SDS011;7860;52.030;5.572;2023-03-14T00:15:03;14.61;;;3.99;;
15516;SDS011;7860;52.030;5.572;2023-03-14T00:16:04;12.74;;;3.44;;
15516;SDS011;7860;52.030;5.572;2023-03-14T00:17:04;13.67;;;3.03;;
15516;SDS011;7860;52.030;5.572;2023-03-14T00:18:04;14.37;;;3.72;;
15516;SDS011;7860;52.030;5.572;2023-03-14T00:19:05;9.49;;;3.17;;
15516;SDS011;7860;52.030;5.572;2023-03-14T00:20:06;13.77;;;3.48;;
15516;SDS011;7860;52.030;5.572;2023-03-14T00:21:05;13.00;;;3.32;;
15516;SDS011;7860;52.030;5.572;2023-03-14T00:22:05;12.93;;;3.26;;
15516;SDS011;7860;52.030;5.572;2023-03-14T00:23:05;12.04;;;3.20;;
15516;SDS011;7860;52.030;5.572;2023-03-14T00:24:06;14.08;;;3.43;;
15516;SDS011;7860;52.030;5.572;2023-03-14T00:25:08;14.51;;;3.38;;
15516;SDS011;7860;52.030;5.572;2023-03-14T00:26:07;13.47;;;3.22;;
15516;SDS011;7860;52.030;5.572;2023-03-14T00:27:06;14.37;;;3.87;;
15516;SDS011;7860;52.030;5.572;2023-03-14T00:28:06;13.37;;;3.67;;
15516;SDS011;7860;52.030;5.572;2023-03-14T00:29:06;15.12;;;3.43;;
15516;SDS011;7860;52.030;5.572;2023-03-14T00:30:07;14.00;;;3.47;;
15516;SDS011;7860;52.030;5.572;2023-03-14T00:31:08;12.98;;;3.49;;
15516;SDS011;7860;52.030;5.572;2023-03-14T00:32:07;11.84;;;3.22;;
15516;SDS011;7860;52.030;5.572;2023-03-14T00:33:07;11.26;;;3.75;;
15516;SDS011;7860;52.030;5.572;2023-03-14T00:34:08;12.93;;;3.65;;
15516;SDS011;7860;52.030;5.572;2023-03-14T00:35:08;12.38;;;3.94;;
15516;SDS011;7860;52.030;5.572;2023-03-14T00:36:09;13.61;;;3.67;;
15516;SDS011;7860;52.030;5.572;2023-03-14T00:37:08;15.79;;;3.87;;
15516;SDS011;7860;52.030;5.572;2023-03-14T00:38:08;12.20;;;3.28;;
15516;SDS011;7860;52.030;5.572;2023-03-14T00:39:08;12.91;;;3.29;;
15516;SDS011;7860;52.030;5.572;2023-03-14T00:40:09;13.46;;;3.28;;
15516;SDS011;7860;52.030;5.572;2023-03-14T00:41:10;13.45;;;3.29;;
15516;SDS011;7860;52.030;5.572;2023-03-14T00:42:09;12.96;;;3.64;;
15516;SDS011;7860;52.030;5.572;2023-03-14T00:43:09;11.54;;;3.27;;
15516;SDS011;7860;52.030;5.572;2023-03-14T00:44:09;13.26;;;3.38;;
15516;SDS011;7860;52.030;5.572;2023-03-14T00:45:10;10.78;;;3.51;;
15516;SDS011;7860;52.030;5.572;2023-03-14T00:46:10;15.02;;;3.32;;
15516;SDS011;7860;52.030;5.572;2023-03-14T00:47:10;13.99;;;3.65;;
15516;SDS011;7860;52.030;5.572;2023-03-14T00:48:10;11.84;;;3.27;;
15516;SDS011;7860;52.030;5.572;2023-03-14T00:49:11;13.80;;;3.37;;
15516;SDS011;7860;52.030;5.572;2023-03-14T00:50:11;12.78;;;3.47;;
15516;SDS011;7860;52.030;5.572;2023-03-14T00:51:12;10.72;;;2.93;;
15516;SDS011;7860;52.030;5.572;2023-03-14T00:52:11;12.14;;;3.02;;
15516;SDS011;7860;52.030;5.572;2023-03-14T00:53:12;11.61;;;2.87;;
15516;SDS011;7860;52.030;5.572;2023-03-14T00:54:12;12.29;;;2.95;;
15516;SDS011;7860;52.030;5.572;2023-03-14T00:55:12;11.51;;;3.07;;
15516;SDS011;7860;52.030;5.572;2023-03-14T00:56:12;12.58;;;2.99;;
15516;SDS011;7860;52.030;5.572;2023-03-14T00:57:12;11.34;;;2.98;;
15516;SDS011;7860;52.030;5.572;2023-03-14T00:58:13;11.81;;;2.68;;
15516;SDS011;7860;52.030;5.572;2023-03-14T00:59:13;10.63;;;2.95;;
15516;SDS011;7860;52.030;5.572;2023-03-14T01:00:13;9.85;;;2.66;;
15516;SDS011;7860;52.030;5.572;2023-03-14T01:01:14;10.76;;;2.67;;
15516;SDS011;7860;52.030;5.572;2023-03-14T01:02:14;10.92;;;2.69;;
15516;SDS011;7860;52.030;5.572;2023-03-14T01:03:14;11.56;;;2.93;;
15516;SDS011;7860;52.030;5.572;2023-03-14T01:04:14;11.99;;;3.14;;
15516;SDS011;7860;52.030;5.572;2023-03-14T01:05:15;10.95;;;2.72;;
15516;SDS011;7860;52.030;5.572;2023-03-14T01:06:15;11.50;;;2.78;;
15516;SDS011;7860;52.030;5.572;2023-03-14T01:07:15;12.80;;;2.83;;
15516;SDS011;7860;52.030;5.572;2023-03-14T01:08:16;11.07;;;2.58;;
15516;SDS011;7860;52.030;5.572;2023-03-14T01:09:16;10.52;;;2.47;;
15516;SDS011;7860;52.030;5.572;2023-03-14T01:10:16;11.54;;;2.70;;
15516;SDS011;7860;52.030;5.572;2023-03-14T01:11:17;11.54;;;2.65;;
15516;SDS011;7860;52.030;5.572;2023-03-14T01:12:17;13.00;;;2.81;;
15516;SDS011;7860;52.030;5.572;2023-03-14T01:13:17;11.82;;;2.87;;
15516;SDS011;7860;52.030;5.572;2023-03-14T01:14:17;9.97;;;2.29;;
15516;SDS011;7860;52.030;5.572;2023-03-14T01:15:17;10.10;;;2.61;;
15516;SDS011;7860;52.030;5.572;2023-03-14T01:16:17;11.84;;;3.11;;
15516;SDS011;7860;52.030;5.572;2023-03-14T01:17:17;9.94;;;2.63;;
15516;SDS011;7860;52.030;5.572;2023-03-14T01:18:17;10.59;;;2.76;;
15516;SDS011;7860;52.030;5.572;2023-03-14T01:19:18;11.40;;;3.09;;
15516;SDS011;7860;52.030;5.572;2023-03-14T01:20:18;10.10;;;2.55;;
15516;SDS011;7860;52.030;5.572;2023-03-14T01:21:19;10.62;;;2.83;;
15516;SDS011;7860;52.030;5.572;2023-03-14T01:22:19;10.81;;;2.99;;
15516;SDS011;7860;52.030;5.572;2023-03-14T01:23:19;11.68;;;2.65;;
15516;SDS011;7860;52.030;5.572;2023-03-14T01:24:19;11.96;;;2.95;;
15516;SDS011;7860;52.030;5.572;2023-03-14T01:25:19;12.45;;;3.13;;
15516;SDS011;7860;52.030;5.572;2023-03-14T01:26:21;12.08;;;2.74;;
15516;SDS011;7860;52.030;5.572;2023-03-14T01:27:20;10.86;;;2.92;;
15516;SDS011;7860;52.030;5.572;2023-03-14T01:28:20;12.92;;;2.94;;
15516;SDS011;7860;52.030;5.572;2023-03-14T01:29:20;13.00;;;2.91;;
15516;SDS011;7860;52.030;5.572;2023-03-14T01:30:21;12.88;;;3.32;;
15516;SDS011;7860;52.030;5.572;2023-03-14T01:31:21;12.30;;;2.86;;
15516;SDS011;7860;52.030;5.572;2023-03-14T01:32:21;14.78;;;2.97;;
15516;SDS011;7860;52.030;5.572;2023-03-14T01:33:21;10.72;;;3.06;;
15516;SDS011;7860;52.030;5.572;2023-03-14T01:34:22;12.65;;;3.29;;
15516;SDS011;7860;52.030;5.572;2023-03-14T01:35:22;14.63;;;3.66;;
15516;SDS011;7860;52.030;5.572;2023-03-14T01:36:22;12.22;;;3.08;;
15516;SDS011;7860;52.030;5.572;2023-03-14T01:37:23;14.07;;;3.31;;
15516;SDS011;7860;52.030;5.572;2023-03-14T01:38:23;12.39;;;3.24;;
15516;SDS011;7860;52.030;5.572;2023-03-14T01:39:24;15.79;;;3.52;;
15516;SDS011;7860;52.030;5.572;2023-03-14T01:40:24;14.99;;;3.39;;
15516;SDS011;7860;52.030;5.572;2023-03-14T01:41:25;13.20;;;2.82;;
15516;SDS011;7860;52.030;5.572;2023-03-14T01:42:25;13.78;;;3.21;;
15516;SDS011;7860;52.030;5.572;2023-03-14T01:43:25;11.62;;;2.79;;
15516;SDS011;7860;52.030;5.572;2023-03-14T01:44:25;13.91;;;3.32;;
15516;SDS011;7860;52.030;5.572;2023-03-14T01:46:34;12.24;;;3.40;;
15516;SDS011;7860;52.030;5.572;2023-03-14T01:47:27;13.72;;;3.20;;
15516;SDS011;7860;52.030;5.572;2023-03-14T01:48:28;13.66;;;2.87;;
15516;SDS011;7860;52.030;5.572;2023-03-14T01:49:28;10.72;;;3.10;;
15516;SDS011;7860;52.030;5.572;2023-03-14T01:50:28;13.38;;;3.08;;
15516;SDS011;7860;52.030;5.572;2023-03-14T01:51:30;11.74;;;3.12;;
15516;SDS011;7860;52.030;5.572;2023-03-14T01:52:30;13.74;;;3.04;;
15516;SDS011;7860;52.030;5.572;2023-03-14T01:53:29;13.35;;;3.15;;
15516;SDS011;7860;52.030;5.572;2023-03-14T01:54:30;11.57;;;2.96;;
15516;SDS011;7860;52.030;5.572;2023-03-14T01:55:29;10.44;;;2.81;;
15516;SDS011;7860;52.030;5.572;2023-03-14T01:56:30;13.83;;;3.03;;
15516;SDS011;7860;52.030;5.572;2023-03-14T01:57:32;13.49;;;2.92;;
15516;SDS011;7860;52.030;5.572;2023-03-14T01:58:31;11.30;;;2.95;;
15516;SDS011;7860;52.030;5.572;2023-03-14T01:59:31;11.44;;;2.44;;
15516;SDS011;7860;52.030;5.572;2023-03-14T02:00:31;11.42;;;2.74;;
15516;SDS011;7860;52.030;5.572;2023-03-14T02:01:32;11.88;;;2.85;;
15516;SDS011;7860;52.030;5.572;2023-03-14T02:02:32;11.24;;;2.77;;
15516;SDS011;7860;52.030;5.572;2023-03-14T02:03:34;12.45;;;3.06;;
15516;SDS011;7860;52.030;5.572;2023-03-14T02:04:34;14.12;;;3.14;;
15516;SDS011;7860;52.030;5.572;2023-03-14T02:05:34;12.45;;;2.92;;
15516;SDS011;7860;52.030;5.572;2023-03-14T02:06:36;12.71;;;3.30;;
15516;SDS011;7860;52.030;5.572;2023-03-14T02:07:36;12.23;;;2.97;;
15516;SDS011;7860;52.030;5.572;2023-03-14T02:08:35;13.47;;;3.42;;
15516;SDS011;7860;52.030;5.572;2023-03-14T02:09:35;9.74;;;2.99;;
15516;SDS011;7860;52.030;5.572;2023-03-14T02:10:37;11.24;;;3.09;;
15516;SDS011;7860;52.030;5.572;2023-03-14T02:11:36;14.88;;;3.60;;
15516;SDS011;7860;52.030;5.572;2023-03-14T02:12:37;10.45;;;3.03;;
15516;SDS011;7860;52.030;5.572;2023-03-14T02:13:37;14.12;;;2.96;;
15516;SDS011;7860;52.030;5.572;2023-03-14T02:14:37;10.50;;;3.24;;
15516;SDS011;7860;52.030;5.572;2023-03-14T02:15:38;14.38;;;3.47;;
15516;SDS011;7860;52.030;5.572;2023-03-14T02:16:38;10.78;;;3.33;;
15516;SDS011;7860;52.030;5.572;2023-03-14T02:17:38;11.83;;;3.26;;
15516;SDS011;7860;52.030;5.572;2023-03-14T02:18:39;12.70;;;3.17;;
15516;SDS011;7860;52.030;5.572;2023-03-14T02:19:43;12.46;;;3.28;;
15516;SDS011;7860;52.030;5.572;2023-03-14T02:20:40;13.62;;;3.46;;
15516;SDS011;7860;52.030;5.572;2023-03-14T02:21:43;11.26;;;3.37;;
15516;SDS011;7860;52.030;5.572;2023-03-14T02:22:40;10.52;;;3.26;;
15516;SDS011;7860;52.030;5.572;2023-03-14T02:23:43;12.45;;;3.49;;
15516;SDS011;7860;52.030;5.572;2023-03-14T02:24:43;15.10;;;4.61;;
15516;SDS011;7860;52.030;5.572;2023-03-14T02:25:43;13.59;;;3.55;;
15516;SDS011;7860;52.030;5.572;2023-03-14T02:26:43;11.43;;;3.52;;
15516;SDS011;7860;52.030;5.572;2023-03-14T02:27:42;12.11;;;3.75;;
15516;SDS011;7860;52.030;5.572;2023-03-14T02:28:42;13.23;;;3.65;;
15516;SDS011;7860;52.030;5.572;2023-03-14T02:29:46;13.14;;;3.58;;
15516;SDS011;7860;52.030;5.572;2023-03-14T02:30:43;9.93;;;3.20;;
15516;SDS011;7860;52.030;5.572;2023-03-14T02:31:43;14.39;;;3.90;;
15516;SDS011;7860;52.030;5.572;2023-03-14T02:32:44;10.75;;;3.75;;
15516;SDS011;7860;52.030;5.572;2023-03-14T02:33:44;13.63;;;3.83;;
15516;SDS011;7860;52.030;5.572;2023-03-14T02:34:45;11.41;;;3.76;;
15516;SDS011;7860;52.030;5.572;2023-03-14T02:35:45;15.62;;;4.08;;
15516;SDS011;7860;52.030;5.572;2023-03-14T02:36:44;14.43;;;4.16;;
15516;SDS011;7860;52.030;5.572;2023-03-14T02:37:46;9.42;;;3.17;;
15516;SDS011;7860;52.030;5.572;2023-03-14T02:38:46;14.05;;;3.42;;
15516;SDS011;7860;52.030;5.572;2023-03-14T02:39:45;12.74;;;3.85;;
15516;SDS011;7860;52.030;5.572;2023-03-14T02:40:46;11.23;;;3.38;;
15516;SDS011;7860;52.030;5.572;2023-03-14T02:41:46;12.25;;;3.74;;
15516;SDS011;7860;52.030;5.572;2023-03-14T02:42:47;11.79;;;3.77;;
15516;SDS011;7860;52.030;5.572;2023-03-14T02:43:47;9.82;;;3.84;;
15516;SDS011;7860;52.030;5.572;2023-03-14T02:44:48;13.93;;;4.09;;
15516;SDS011;7860;52.030;5.572;2023-03-14T02:45:48;10.81;;;3.42;;
15516;SDS011;7860;52.030;5.572;2023-03-14T02:46:48;15.03;;;4.17;;
15516;SDS011;7860;52.030;5.572;2023-03-14T02:47:49;14.20;;;3.82;;
15516;SDS011;7860;52.030;5.572;2023-03-14T02:48:49;15.20;;;4.08;;
15516;SDS011;7860;52.030;5.572;2023-03-14T02:49:50;13.10;;;3.82;;
15516;SDS011;7860;52.030;5.572;2023-03-14T02:50:50;14.46;;;4.25;;
15516;SDS011;7860;52.030;5.572;2023-03-14T02:51:50;13.06;;;3.61;;
15516;SDS011;7860;52.030;5.572;2023-03-14T02:52:50;14.59;;;3.98;;
15516;SDS011;7860;52.030;5.572;2023-03-14T02:53:50;11.89;;;3.76;;
15516;SDS011;7860;52.030;5.572;2023-03-14T02:54:50;11.92;;;3.87;;
15516;SDS011;7860;52.030;5.572;2023-03-14T02:55:51;12.78;;;3.81;;
15516;SDS011;7860;52.030;5.572;2023-03-14T02:56:51;12.29;;;3.87;;
15516;SDS011;7860;52.030;5.572;2023-03-14T02:57:51;12.13;;;3.93;;
15516;SDS011;7860;52.030;5.572;2023-03-14T02:58:51;11.26;;;3.45;;
15516;SDS011;7860;52.030;5.572;2023-03-14T02:59:51;13.95;;;3.59;;
15516;SDS011;7860;52.030;5.572;2023-03-14T03:00:52;12.51;;;3.74;;
15516;SDS011;7860;52.030;5.572;2023-03-14T03:01:52;17.22;;;3.68;;
15516;SDS011;7860;52.030;5.572;2023-03-14T03:02:52;12.62;;;3.70;;
15516;SDS011;7860;52.030;5.572;2023-03-14T03:03:52;15.37;;;3.54;;
15516;SDS011;7860;52.030;5.572;2023-03-14T03:04:53;12.50;;;3.40;;
15516;SDS011;7860;52.030;5.572;2023-03-14T03:05:53;14.25;;;3.53;;
15516;SDS011;7860;52.030;5.572;2023-03-14T03:06:53;12.08;;;3.71;;
15516;SDS011;7860;52.030;5.572;2023-03-14T03:07:54;14.25;;;3.39;;
15516;SDS011;7860;52.030;5.572;2023-03-14T03:08:54;13.16;;;3.46;;
15516;SDS011;7860;52.030;5.572;2023-03-14T03:09:54;12.38;;;3.73;;
15516;SDS011;7860;52.030;5.572;2023-03-14T03:10:54;11.20;;;3.41;;
15516;SDS011;7860;52.030;5.572;2023-03-14T03:11:54;12.47;;;4.19;;
15516;SDS011;7860;52.030;5.572;2023-03-14T03:12:54;12.43;;;3.33;;
15516;SDS011;7860;52.030;5.572;2023-03-14T03:13:55;12.13;;;3.42;;
15516;SDS011;7860;52.030;5.572;2023-03-14T03:14:55;13.84;;;3.57;;
15516;SDS011;7860;52.030;5.572;2023-03-14T03:15:55;13.84;;;3.78;;
15516;SDS011;7860;52.030;5.572;2023-03-14T03:16:55;11.37;;;3.27;;
15516;SDS011;7860;52.030;5.572;2023-03-14T03:17:55;14.41;;;3.50;;
15516;SDS011;7860;52.030;5.572;2023-03-14T03:18:56;12.72;;;3.12;;
15516;SDS011;7860;52.030;5.572;2023-03-14T03:19:56;9.44;;;2.96;;
15516;SDS011;7860;52.030;5.572;2023-03-14T03:20:59;9.87;;;2.73;;
15516;SDS011;7860;52.030;5.572;2023-03-14T03:21:57;13.69;;;3.30;;
15516;SDS011;7860;52.030;5.572;2023-03-14T03:22:58;13.01;;;3.38;;
15516;SDS011;7860;52.030;5.572;2023-03-14T03:23:58;10.13;;;3.11;;
15516;SDS011;7860;52.030;5.572;2023-03-14T03:24:59;11.34;;;3.35;;
15516;SDS011;7860;52.030;5.572;2023-03-14T03:25:59;12.05;;;3.29;;
15516;SDS011;7860;52.030;5.572;2023-03-14T03:26:59;9.97;;;3.52;;
15516;SDS011;7860;52.030;5.572;2023-03-14T03:27:59;12.16;;;3.69;;
15516;SDS011;7860;52.030;5.572;2023-03-14T03:29:00;10.17;;;3.31;;
15516;SDS011;7860;52.030;5.572;2023-03-14T03:30:00;11.67;;;3.75;;
15516;SDS011;7860;52.030;5.572;2023-03-14T03:31:05;15.04;;;3.90;;
15516;SDS011;7860;52.030;5.572;2023-03-14T03:32:01;13.13;;;3.83;;
15516;SDS011;7860;52.030;5.572;2023-03-14T03:33:01;13.56;;;3.51;;
15516;SDS011;7860;52.030;5.572;2023-03-14T03:34:02;13.27;;;3.63;;
15516;SDS011;7860;52.030;5.572;2023-03-14T03:35:02;15.38;;;4.20;;
15516;SDS011;7860;52.030;5.572;2023-03-14T03:36:02;13.60;;;3.68;;
15516;SDS011;7860;52.030;5.572;2023-03-14T03:37:03;13.68;;;3.76;;
15516;SDS011;7860;52.030;5.572;2023-03-14T03:38:03;12.81;;;3.58;;
15516;SDS011;7860;52.030;5.572;2023-03-14T03:39:03;13.22;;;3.69;;
15516;SDS011;7860;52.030;5.572;2023-03-14T03:40:03;11.81;;;3.41;;
15516;SDS011;7860;52.030;5.572;2023-03-14T03:41:04;15.44;;;3.50;;
15516;SDS011;7860;52.030;5.572;2023-03-14T03:42:04;12.05;;;3.98;;
15516;SDS011;7860;52.030;5.572;2023-03-14T03:43:04;11.89;;;3.99;;
15516;SDS011;7860;52.030;5.572;2023-03-14T03:44:04;12.02;;;3.49;;
15516;SDS011;7860;52.030;5.572;2023-03-14T03:45:05;13.42;;;3.26;;
15516;SDS011;7860;52.030;5.572;2023-03-14T03:46:05;13.26;;;3.71;;
15516;SDS011;7860;52.030;5.572;2023-03-14T03:47:06;15.94;;;3.67;;
15516;SDS011;7860;52.030;5.572;2023-03-14T03:48:06;11.83;;;3.53;;
15516;SDS011;7860;52.030;5.572;2023-03-14T03:49:06;13.37;;;3.40;;
15516;SDS011;7860;52.030;5.572;2023-03-14T03:50:07;14.18;;;3.84;;
15516;SDS011;7860;52.030;5.572;2023-03-14T03:51:07;13.49;;;3.36;;
15516;SDS011;7860;52.030;5.572;2023-03-14T03:52:07;10.99;;;3.11;;
15516;SDS011;7860;52.030;5.572;2023-03-14T03:53:07;13.06;;;3.45;;
15516;SDS011;7860;52.030;5.572;2023-03-14T03:54:08;12.67;;;3.33;;
15516;SDS011;7860;52.030;5.572;2023-03-14T03:55:08;10.55;;;3.22;;
15516;SDS011;7860;52.030;5.572;2023-03-14T03:56:09;11.10;;;3.03;;
15516;SDS011;7860;52.030;5.572;2023-03-14T03:57:09;14.28;;;3.64;;
15516;SDS011;7860;52.030;5.572;2023-03-14T03:58:09;11.70;;;3.10;;
15516;SDS011;7860;52.030;5.572;2023-03-14T03:59:09;9.91;;;2.94;;
15516;SDS011;7860;52.030;5.572;2023-03-14T04:00:10;11.88;;;3.15;;
15516;SDS011;7860;52.030;5.572;2023-03-14T04:01:10;11.37;;;3.14;;
15516;SDS011;7860;52.030;5.572;2023-03-14T04:02:10;15.04;;;3.81;;
15516;SDS011;7860;52.030;5.572;2023-03-14T04:03:11;12.32;;;3.57;;
15516;SDS011;7860;52.030;5.572;2023-03-14T04:04:11;13.44;;;3.36;;
15516;SDS011;7860;52.030;5.572;2023-03-14T04:05:12;13.49;;;3.49;;
15516;SDS011;7860;52.030;5.572;2023-03-14T04:06:12;12.74;;;3.32;;
15516;SDS011;7860;52.030;5.572;2023-03-14T04:07:12;13.63;;;3.33;;
15516;SDS011;7860;52.030;5.572;2023-03-14T04:08:13;13.80;;;3.73;;
15516;SDS011;7860;52.030;5.572;2023-03-14T04:09:13;14.18;;;3.62;;
15516;SDS011;7860;52.030;5.572;2023-03-14T04:10:13;12.84;;;3.83;;
15516;SDS011;7860;52.030;5.572;2023-03-14T04:11:13;15.97;;;4.19;;
15516;SDS011;7860;52.030;5.572;2023-03-14T04:12:14;12.46;;;3.62;;
15516;SDS011;7860;52.030;5.572;2023-03-14T04:13:14;15.12;;;4.10;;
15516;SDS011;7860;52.030;5.572;2023-03-14T04:14:14;14.65;;;3.80;;
15516;SDS011;7860;52.030;5.572;2023-03-14T04:15:14;13.57;;;3.82;;
15516;SDS011;7860;52.030;5.572;2023-03-14T04:16:16;13.75;;;3.97;;
15516;SDS011;7860;52.030;5.572;2023-03-14T04:17:15;14.65;;;3.81;;
15516;SDS011;7860;52.030;5.572;2023-03-14T04:18:15;13.98;;;4.12;;
15516;SDS011;7860;52.030;5.572;2023-03-14T04:19:16;13.54;;;3.94;;
15516;SDS011;7860;52.030;5.572;2023-03-14T04:20:16;13.47;;;3.80;;
15516;SDS011;7860;52.030;5.572;2023-03-14T04:21:16;11.33;;;3.60;;
15516;SDS011;7860;52.030;5.572;2023-03-14T04:22:16;11.17;;;3.64;;
15516;SDS011;7860;52.030;5.572;2023-03-14T04:23:17;18.25;;;3.90;;
15516;SDS011;7860;52.030;5.572;2023-03-14T04:24:17;13.68;;;3.74;;
15516;SDS011;7860;52.030;5.572;2023-03-14T04:25:17;13.29;;;3.64;;
15516;SDS011;7860;52.030;5.572;2023-03-14T04:26:18;11.16;;;3.48;;
15516;SDS011;7860;52.030;5.572;2023-03-14T04:27:18;12.49;;;3.72;;
15516;SDS011;7860;52.030;5.572;2023-03-14T04:28:18;12.79;;;3.80;;
15516;SDS011;7860;52.030;5.572;2023-03-14T04:29:19;13.84;;;3.72;;
15516;SDS011;7860;52.030;5.572;2023-03-14T04:30:19;16.84;;;4.09;;
15516;SDS011;7860;52.030;5.572;2023-03-14T04:31:20;12.51;;;3.25;;
15516;SDS011;7860;52.030;5.572;2023-03-14T04:32:19;14.54;;;3.78;;
15516;SDS011;7860;52.030;5.572;2023-03-14T04:33:20;12.04;;;3.60;;
15516;SDS011;7860;52.030;5.572;2023-03-14T04:34:20;10.91;;;3.43;;
15516;SDS011;7860;52.030;5.572;2023-03-14T04:35:20;12.91;;;3.56;;
15516;SDS011;7860;52.030;5.572;2023-03-14T04:36:20;13.51;;;3.88;;
15516;SDS011;7860;52.030;5.572;2023-03-14T04:37:20;15.02;;;3.61;;
15516;SDS011;7860;52.030;5.572;2023-03-14T04:38:20;14.49;;;3.45;;
15516;SDS011;7860;52.030;5.572;2023-03-14T04:39:20;15.37;;;3.87;;
15516;SDS011;7860;52.030;5.572;2023-03-14T04:40:21;15.15;;;4.02;;
15516;SDS011;7860;52.030;5.572;2023-03-14T04:41:21;12.29;;;3.25;;
15516;SDS011;7860;52.030;5.572;2023-03-14T04:42:21;13.92;;;3.72;;
15516;SDS011;7860;52.030;5.572;2023-03-14T04:43:21;12.74;;;3.26;;
15516;SDS011;7860;52.030;5.572;2023-03-14T04:44:21;12.02;;;3.20;;
15516;SDS011;7860;52.030;5.572;2023-03-14T04:45:21;9.84;;;3.09;;
15516;SDS011;7860;52.030;5.572;2023-03-14T04:46:22;13.03;;;3.47;;
15516;SDS011;7860;52.030;5.572;2023-03-14T04:47:22;13.32;;;3.59;;
15516;SDS011;7860;52.030;5.572;2023-03-14T04:48:23;14.74;;;3.87;;
15516;SDS011;7860;52.030;5.572;2023-03-14T04:49:22;11.65;;;3.29;;
15516;SDS011;7860;52.030;5.572;2023-03-14T04:50:23;14.00;;;3.48;;
15516;SDS011;7860;52.030;5.572;2023-03-14T04:51:23;11.95;;;3.46;;
15516;SDS011;7860;52.030;5.572;2023-03-14T04:52:23;11.27;;;3.38;;
15516;SDS011;7860;52.030;5.572;2023-03-14T04:53:23;10.63;;;3.26;;
15516;SDS011;7860;52.030;5.572;2023-03-14T04:54:23;11.05;;;3.19;;
15516;SDS011;7860;52.030;5.572;2023-03-14T04:55:24;13.19;;;3.15;;
15516;SDS011;7860;52.030;5.572;2023-03-14T04:56:24;12.96;;;3.17;;
15516;SDS011;7860;52.030;5.572;2023-03-14T04:57:24;9.88;;;2.77;;
15516;SDS011;7860;52.030;5.572;2023-03-14T04:58:25;11.07;;;2.75;;
15516;SDS011;7860;52.030;5.572;2023-03-14T04:59:25;13.72;;;2.68;;
15516;SDS011;7860;52.030;5.572;2023-03-14T05:00:25;10.31;;;2.67;;
15516;SDS011;7860;52.030;5.572;2023-03-14T05:01:25;12.12;;;3.04;;
15516;SDS011;7860;52.030;5.572;2023-03-14T05:02:25;11.25;;;2.99;;
15516;SDS011;7860;52.030;5.572;2023-03-14T05:03:25;13.51;;;3.21;;
15516;SDS011;7860;52.030;5.572;2023-03-14T05:04:25;12.98;;;2.83;;
15516;SDS011;7860;52.030;5.572;2023-03-14T05:05:26;12.32;;;3.05;;
15516;SDS011;7860;52.030;5.572;2023-03-14T05:06:26;14.83;;;3.16;;
15516;SDS011;7860;52.030;5.572;2023-03-14T05:07:26;11.35;;;2.81;;
15516;SDS011;7860;52.030;5.572;2023-03-14T05:08:26;11.34;;;2.89;;
15516;SDS011;7860;52.030;5.572;2023-03-14T05:09:27;8.63;;;2.76;;
15516;SDS011;7860;52.030;5.572;2023-03-14T05:10:27;9.89;;;3.01;;
15516;SDS011;7860;52.030;5.572;2023-03-14T05:11:27;10.44;;;2.88;;
15516;SDS011;7860;52.030;5.572;2023-03-14T05:12:28;9.27;;;2.93;;
15516;SDS011;7860;52.030;5.572;2023-03-14T05:13:28;10.65;;;3.03;;
15516;SDS011;7860;52.030;5.572;2023-03-14T05:14:28;9.79;;;3.00;;
15516;SDS011;7860;52.030;5.572;2023-03-14T05:15:28;9.25;;;2.93;;
15516;SDS011;7860;52.030;5.572;2023-03-14T05:16:29;9.10;;;3.12;;
15516;SDS011;7860;52.030;5.572;2023-03-14T05:17:30;9.14;;;3.05;;
15516;SDS011;7860;52.030;5.572;2023-03-14T05:18:30;12.30;;;3.13;;
15516;SDS011;7860;52.030;5.572;2023-03-14T05:19:30;10.26;;;3.12;;
15516;SDS011;7860;52.030;5.572;2023-03-14T05:20:30;11.27;;;3.27;;
15516;SDS011;7860;52.030;5.572;2023-03-14T05:21:31;12.72;;;3.23;;
15516;SDS011;7860;52.030;5.572;2023-03-14T05:22:31;8.67;;;2.89;;
15516;SDS011;7860;52.030;5.572;2023-03-14T05:23:31;10.06;;;3.10;;
15516;SDS011;7860;52.030;5.572;2023-03-14T05:24:32;11.57;;;3.16;;
15516;SDS011;7860;52.030;5.572;2023-03-14T05:25:32;11.78;;;3.34;;
15516;SDS011;7860;52.030;5.572;2023-03-14T05:26:32;11.42;;;3.23;;
15516;SDS011;7860;52.030;5.572;2023-03-14T05:27:33;10.17;;;3.06;;
15516;SDS011;7860;52.030;5.572;2023-03-14T05:28:32;11.02;;;3.28;;
15516;SDS011;7860;52.030;5.572;2023-03-14T05:29:33;9.14;;;2.81;;
15516;SDS011;7860;52.030;5.572;2023-03-14T05:30:33;11.46;;;3.44;;
15516;SDS011;7860;52.030;5.572;2023-03-14T05:31:33;11.35;;;3.54;;
15516;SDS011;7860;52.030;5.572;2023-03-14T05:32:34;11.76;;;3.46;;
15516;SDS011;7860;52.030;5.572;2023-03-14T05:33:34;9.88;;;3.24;;
15516;SDS011;7860;52.030;5.572;2023-03-14T05:34:34;12.73;;;3.98;;
15516;SDS011;7860;52.030;5.572;2023-03-14T05:35:34;12.51;;;3.62;;
15516;SDS011;7860;52.030;5.572;2023-03-14T05:36:34;12.76;;;3.65;;
15516;SDS011;7860;52.030;5.572;2023-03-14T05:37:35;12.51;;;3.33;;
15516;SDS011;7860;52.030;5.572;2023-03-14T05:38:35;9.34;;;3.00;;
15516;SDS011;7860;52.030;5.572;2023-03-14T05:39:35;8.65;;;3.05;;
15516;SDS011;7860;52.030;5.572;2023-03-14T05:40:35;11.87;;;3.67;;
15516;SDS011;7860;52.030;5.572;2023-03-14T05:41:36;12.86;;;3.46;;
15516;SDS011;7860;52.030;5.572;2023-03-14T05:42:36;11.03;;;3.25;;
15516;SDS011;7860;52.030;5.572;2023-03-14T05:43:37;9.70;;;3.53;;
15516;SDS011;7860;52.030;5.572;2023-03-14T05:44:37;11.56;;;3.24;;
15516;SDS011;7860;52.030;5.572;2023-03-14T05:45:38;11.49;;;3.23;;
15516;SDS011;7860;52.030;5.572;2023-03-14T05:46:38;10.57;;;3.77;;
15516;SDS011;7860;52.030;5.572;2023-03-14T05:47:38;10.34;;;3.48;;
15516;SDS011;7860;52.030;5.572;2023-03-14T05:48:39;10.56;;;3.52;;
15516;SDS011;7860;52.030;5.572;2023-03-14T05:49:39;10.22;;;3.75;;
15516;SDS011;7860;52.030;5.572;2023-03-14T05:50:39;13.16;;;3.78;;
15516;SDS011;7860;52.030;5.572;2023-03-14T05:51:40;10.83;;;3.85;;
15516;SDS011;7860;52.030;5.572;2023-03-14T05:52:40;12.60;;;3.92;;
15516;SDS011;7860;52.030;5.572;2023-03-14T05:53:40;9.69;;;3.83;;
15516;SDS011;7860;52.030;5.572;2023-03-14T05:54:40;10.73;;;3.53;;
15516;SDS011;7860;52.030;5.572;2023-03-14T05:55:41;11.23;;;3.87;;
15516;SDS011;7860;52.030;5.572;2023-03-14T05:56:41;10.43;;;3.95;;
15516;SDS011;7860;52.030;5.572;2023-03-14T05:57:41;14.78;;;4.37;;
15516;SDS011;7860;52.030;5.572;2023-03-14T05:58:42;15.79;;;4.34;;
15516;SDS011;7860;52.030;5.572;2023-03-14T05:59:42;10.12;;;3.50;;
15516;SDS011;7860;52.030;5.572;2023-03-14T06:00:42;10.60;;;3.82;;
15516;SDS011;7860;52.030;5.572;2023-03-14T06:01:42;11.44;;;4.07;;
15516;SDS011;7860;52.030;5.572;2023-03-14T06:02:43;11.06;;;3.59;;
15516;SDS011;7860;52.030;5.572;2023-03-14T06:03:43;13.24;;;3.93;;
15516;SDS011;7860;52.030;5.572;2023-03-14T06:04:43;12.34;;;4.04;;
15516;SDS011;7860;52.030;5.572;2023-03-14T06:05:44;11.37;;;4.31;;